createdAt,value
2023-04-27T05:02:32.155Z,90.80
2023-04-27T05:07:35.661Z,91.20
2023-04-27T05:12:38.951Z,91.20
2023-04-27T05:17:43.698Z,91.00
2023-04-27T05:22:47.486Z,91.30
2023-04-27T05:27:50.776Z,91.50
2023-04-27T05:32:55.464Z,91.50
2023-04-27T05:37:58.856Z,91.40
2023-04-27T05:43:05.365Z,91.60
2023-04-27T05:48:10.261Z,91.80
2023-04-27T05:53:13.618Z,91.80
2023-04-27T05:58:17.243Z,91.70
2023-04-27T06:03:22.363Z,91.90
2023-04-27T06:08:25.815Z,91.50
2023-04-27T06:13:29.132Z,91.50
2023-04-27T06:18:33.865Z,91.30
2023-04-27T06:23:37.166Z,91.00
2023-04-27T06:28:40.486Z,90.90
2023-04-27T06:33:45.198Z,90.70
2023-04-27T06:38:49.637Z,90.60
2023-04-27T06:43:53.061Z,90.50
2023-04-27T06:48:57.946Z,90.30
2023-04-27T06:54:01.257Z,90.20
2023-04-27T06:59:04.790Z,89.80
2023-04-27T07:04:09.571Z,90.00
2023-04-27T07:09:26.148Z,90.00
2023-04-27T07:14:30.565Z,89.80
2023-04-27T07:19:35.969Z,89.70
2023-04-27T07:24:39.307Z,89.10
2023-04-27T07:29:43.491Z,88.90
2023-04-27T07:34:53.429Z,88.50
2023-04-27T07:39:57.766Z,87.90
2023-04-27T07:45:01.244Z,88.20
2023-04-27T07:50:07.344Z,89.10
2023-04-27T07:55:11.094Z,89.40
2023-04-27T08:00:14.689Z,90.20
2023-04-27T08:05:19.723Z,90.40
2023-04-27T08:10:23.771Z,90.50
2023-04-27T08:15:27.099Z,90.80
2023-04-27T08:20:31.819Z,90.90
2023-04-27T08:25:36.778Z,91.00
2023-04-27T08:30:40.099Z,91.00
2023-04-27T08:35:44.761Z,91.10
2023-04-27T08:40:48.071Z,91.20
2023-04-27T08:45:51.899Z,91.50
2023-04-27T08:50:57.288Z,91.60
2023-04-27T08:56:01.984Z,91.40
2023-04-27T09:01:06.776Z,91.10
2023-04-27T09:06:11.558Z,91.20
2023-04-27T09:11:15.532Z,91.30
2023-04-27T09:16:24.273Z,91.30
2023-04-27T09:21:29.948Z,91.20
2023-04-27T09:26:33.276Z,91.40
2023-04-27T09:31:37.352Z,91.30
2023-04-27T09:36:42.511Z,91.10
2023-04-27T09:41:46.397Z,91.10
2023-04-27T09:46:49.849Z,91.10
2023-04-27T09:51:56.929Z,91.20
2023-04-27T09:57:12.820Z,91.50
2023-04-27T10:07:28.874Z,91.70
2023-04-27T10:12:34.646Z,91.80
2023-04-27T10:17:38.061Z,91.70
2023-04-27T10:22:43.562Z,92.00
2023-04-27T10:27:50.001Z,92.00
2023-04-27T10:32:54.331Z,92.50
2023-04-27T10:38:06.304Z,92.80
2023-04-27T10:43:10.297Z,93.00
2023-04-27T10:48:14.425Z,93.00
2023-04-27T10:53:19.156Z,93.70
2023-04-27T10:58:24.169Z,93.70
2023-04-27T11:03:28.889Z,94.30
2023-04-27T11:08:34.237Z,94.80
2023-04-27T11:13:37.687Z,95.00
2023-04-27T11:18:41.027Z,95.50
2023-04-27T11:23:45.727Z,95.80
2023-04-27T11:28:58.845Z,96.00
2023-04-27T11:34:02.201Z,95.70
2023-04-27T11:39:07.487Z,96.30
2023-04-27T11:44:11.434Z,96.30
2023-04-27T11:49:15.504Z,96.80
2023-04-27T11:54:20.396Z,97.10
2023-04-27T11:59:24.093Z,98.10
2023-04-27T12:04:27.579Z,98.10
2023-04-27T12:09:32.532Z,98.40
2023-04-27T12:14:35.868Z,98.30
2023-04-27T12:19:39.205Z,98.50
2023-04-27T12:24:43.920Z,98.60
2023-04-27T12:29:47.237Z,98.60
2023-04-27T12:34:50.968Z,99.10
2023-04-27T12:39:55.806Z,99.30
2023-04-27T12:44:59.345Z,99.40
2023-04-27T12:50:02.821Z,99.90
2023-04-27T12:55:15.393Z,99.90
2023-04-27T13:00:25.294Z,99.90
2023-04-27T13:05:31.281Z,99.90
2023-04-27T13:10:37.306Z,99.90
2023-04-27T13:15:40.693Z,99.90
2023-04-27T13:20:44.172Z,99.90
2023-04-27T13:25:49.785Z,99.90
2023-04-27T13:30:53.158Z,99.90
2023-04-27T13:35:56.505Z,99.90
2023-04-27T13:41:01.255Z,99.90
2023-04-27T13:46:04.657Z,99.90
2023-04-27T13:51:07.999Z,99.90
2023-04-27T13:56:12.738Z,99.90
2023-04-27T14:01:16.174Z,99.90
2023-04-27T14:06:19.515Z,99.90
2023-04-27T14:11:24.421Z,99.90
2023-04-27T14:16:27.853Z,99.90
2023-04-27T14:21:32.216Z,99.90
2023-04-27T14:26:36.873Z,99.90
2023-04-27T14:31:40.774Z,99.90
2023-04-27T14:36:44.143Z,99.90
2023-04-27T14:41:48.839Z,99.90
2023-04-27T14:46:52.174Z,99.90
2023-04-27T14:51:55.517Z,99.90
2023-04-27T14:57:01.080Z,99.90
2023-04-27T15:02:05.018Z,99.90
2023-04-27T15:07:09.769Z,99.90
2023-04-27T15:12:14.665Z,99.90
2023-04-27T15:17:18.009Z,99.90
2023-04-27T15:22:21.603Z,99.90
2023-04-27T15:27:26.608Z,99.90
2023-04-27T15:32:30.324Z,99.90
2023-04-27T15:37:36.021Z,99.90
2023-04-27T15:42:40.766Z,99.90
2023-04-27T15:47:44.123Z,99.90
2023-04-27T15:52:47.472Z,99.90
2023-04-27T15:57:52.157Z,99.90
2023-04-27T16:02:55.761Z,99.90
2023-04-27T16:07:59.171Z,99.90
2023-04-27T16:13:03.924Z,99.90
2023-04-27T16:18:07.271Z,99.90
2023-04-27T16:23:10.617Z,99.90
2023-04-27T16:28:16.571Z,99.90
2023-04-27T16:33:21.341Z,99.90
2023-04-27T16:38:24.807Z,99.90
2023-04-27T16:43:31.226Z,99.90
2023-04-27T16:48:34.578Z,99.90
2023-04-27T16:53:37.906Z,99.90
2023-04-27T16:58:42.620Z,99.90
2023-04-27T17:03:46.062Z,99.90
2023-04-27T17:08:49.437Z,99.90
2023-04-27T17:13:54.163Z,99.90
2023-04-27T17:18:57.626Z,99.90
2023-04-27T17:24:01.065Z,99.90
2023-04-27T17:29:05.936Z,99.90
2023-04-27T17:34:09.502Z,99.90
2023-04-27T17:39:13.983Z,99.90
2023-04-27T17:44:18.797Z,99.90
2023-04-27T17:49:22.140Z,99.90
2023-04-27T17:54:26.271Z,99.90
2023-04-27T17:59:31.953Z,99.90
2023-04-27T18:04:35.366Z,99.90
2023-04-27T18:09:38.763Z,99.90
2023-04-27T18:14:43.449Z,99.90
2023-04-27T18:19:47.425Z,99.90
2023-04-27T18:24:52.305Z,99.90
2023-04-27T18:29:56.956Z,99.90
2023-04-27T18:35:00.475Z,99.90
2023-04-27T18:40:05.851Z,99.90
2023-04-27T18:45:11.234Z,99.90
2023-04-27T18:50:14.602Z,99.90
2023-04-27T18:55:18.188Z,99.90
2023-04-27T19:00:22.945Z,99.90
2023-04-27T19:05:27.333Z,99.90
2023-04-27T19:10:31.156Z,99.90
2023-04-27T19:15:35.948Z,99.90
2023-04-27T19:20:39.468Z,99.90
2023-04-27T19:25:43.156Z,99.90
2023-04-27T19:30:48.036Z,99.90
2023-04-27T19:35:52.420Z,99.90
2023-04-27T19:40:55.746Z,99.90
2023-04-27T19:46:01.919Z,99.90
2023-04-27T19:51:09.120Z,99.90
2023-04-27T19:56:12.578Z,99.90
2023-04-27T20:01:17.323Z,99.90
2023-04-27T20:06:21.676Z,99.90
2023-04-27T20:11:24.996Z,99.90
2023-04-27T20:16:29.755Z,99.90
2023-04-27T20:21:33.546Z,99.90
2023-04-27T20:26:36.883Z,99.90
2023-04-27T20:31:41.692Z,99.90
2023-04-27T20:36:45.364Z,99.90
2023-04-27T20:41:49.137Z,99.90
2023-04-27T20:46:53.833Z,99.90
2023-04-27T20:51:57.124Z,99.90
2023-04-27T20:57:01.452Z,99.90
2023-04-27T21:02:06.147Z,99.90
2023-04-27T21:07:09.470Z,99.90
2023-04-27T21:12:14.657Z,99.90
2023-04-27T21:17:19.354Z,99.90
2023-04-27T21:22:22.951Z,99.90
2023-04-27T21:27:26.249Z,99.90
2023-04-27T21:32:30.969Z,99.90
2023-04-27T21:37:34.330Z,99.90
2023-04-27T21:42:37.745Z,99.90
2023-04-27T21:47:42.503Z,99.90
2023-04-27T21:52:45.954Z,99.90
2023-04-27T21:57:49.250Z,99.90
2023-04-27T22:02:54.036Z,99.90
2023-04-27T22:07:58.239Z,99.90
2023-04-27T22:13:08.263Z,99.90
2023-04-27T22:18:19.822Z,99.90
2023-04-27T22:23:23.146Z,99.90
2023-04-27T22:28:26.536Z,99.90
